sensor_id;sensor_type;location;lat;lon;timestamp;P1;durP1;ratioP1;P2;durP2;ratioP2
545;SDS011;259;53.304;9.816;2022-10-16T00:01:34;1.37;;;1.27;;
545;SDS011;259;53.304;9.816;2022-10-16T00:04:00;1.60;;;1.50;;
545;SDS011;259;53.304;9.816;2022-10-16T00:06:26;1.20;;;1.20;;
545;SDS011;259;53.304;9.816;2022-10-16T00:08:52;1.33;;;1.23;;
545;SDS011;259;53.304;9.816;2022-10-16T00:11:20;1.33;;;1.23;;
545;SDS011;259;53.304;9.816;2022-10-16T00:13:47;1.40;;;1.30;;
545;SDS011;259;53.304;9.816;2022-10-16T00:16:14;1.10;;;1.00;;
545;SDS011;259;53.304;9.816;2022-10-16T00:18:40;1.57;;;1.47;;
545;SDS011;259;53.304;9.816;2022-10-16T00:21:10;1.37;;;1.27;;
545;SDS011;259;53.304;9.816;2022-10-16T00:23:38;1.10;;;1.10;;
545;SDS011;259;53.304;9.816;2022-10-16T00:26:05;1.47;;;1.37;;
545;SDS011;259;53.304;9.816;2022-10-16T00:28:33;1.17;;;1.07;;
545;SDS011;259;53.304;9.816;2022-10-16T00:31:02;1.20;;;1.20;;
545;SDS011;259;53.304;9.816;2022-10-16T00:33:32;1.30;;;1.20;;
545;SDS011;259;53.304;9.816;2022-10-16T00:35:59;1.33;;;1.23;;
545;SDS011;259;53.304;9.816;2022-10-16T00:38:25;1.40;;;1.30;;
545;SDS011;259;53.304;9.816;2022-10-16T00:40:50;1.50;;;1.40;;
545;SDS011;259;53.304;9.816;2022-10-16T00:46:04;1.00;;;1.00;;
545;SDS011;259;53.304;9.816;2022-10-16T00:48:47;1.40;;;1.30;;
545;SDS011;259;53.304;9.816;2022-10-16T00:51:28;1.03;;;1.03;;
545;SDS011;259;53.304;9.816;2022-10-16T00:53:57;1.37;;;1.27;;
545;SDS011;259;53.304;9.816;2022-10-16T00:56:24;1.07;;;1.07;;
545;SDS011;259;53.304;9.816;2022-10-16T00:58:50;1.37;;;1.27;;
545;SDS011;259;53.304;9.816;2022-10-16T01:01:15;1.40;;;1.30;;
545;SDS011;259;53.304;9.816;2022-10-16T01:03:41;1.40;;;1.30;;
545;SDS011;259;53.304;9.816;2022-10-16T01:08:44;1.53;;;1.23;;
545;SDS011;259;53.304;9.816;2022-10-16T01:11:24;1.00;;;1.00;;
545;SDS011;259;53.304;9.816;2022-10-16T01:13:58;1.77;;;1.23;;
545;SDS011;259;53.304;9.816;2022-10-16T01:19:12;1.30;;;1.30;;
545;SDS011;259;53.304;9.816;2022-10-16T01:21:53;1.07;;;1.07;;
545;SDS011;259;53.304;9.816;2022-10-16T01:24:39;1.20;;;1.10;;
545;SDS011;259;53.304;9.816;2022-10-16T01:35:25;0.90;;;0.90;;
545;SDS011;259;53.304;9.816;2022-10-16T01:40:32;1.10;;;1.10;;
545;SDS011;259;53.304;9.816;2022-10-16T01:43:00;1.00;;;1.00;;
545;SDS011;259;53.304;9.816;2022-10-16T01:45:30;1.00;;;1.00;;
545;SDS011;259;53.304;9.816;2022-10-16T01:47:57;1.70;;;1.60;;
545;SDS011;259;53.304;9.816;2022-10-16T01:50:25;1.40;;;1.00;;
545;SDS011;259;53.304;9.816;2022-10-16T01:52:52;0.90;;;0.90;;
545;SDS011;259;53.304;9.816;2022-10-16T01:55:26;0.70;;;0.70;;
545;SDS011;259;53.304;9.816;2022-10-16T01:57:55;1.80;;;0.93;;
545;SDS011;259;53.304;9.816;2022-10-16T02:00:22;1.30;;;1.20;;
545;SDS011;259;53.304;9.816;2022-10-16T02:02:49;1.00;;;1.00;;
545;SDS011;259;53.304;9.816;2022-10-16T02:07:51;1.17;;;0.80;;
545;SDS011;259;53.304;9.816;2022-10-16T02:10:17;0.97;;;0.90;;
545;SDS011;259;53.304;9.816;2022-10-16T02:12:49;1.30;;;1.20;;
545;SDS011;259;53.304;9.816;2022-10-16T02:15:35;1.10;;;1.00;;
545;SDS011;259;53.304;9.816;2022-10-16T02:18:02;0.87;;;0.87;;
545;SDS011;259;53.304;9.816;2022-10-16T02:20:30;1.33;;;1.00;;
545;SDS011;259;53.304;9.816;2022-10-16T02:23:01;0.90;;;0.90;;
545;SDS011;259;53.304;9.816;2022-10-16T02:25:32;1.20;;;1.10;;
545;SDS011;259;53.304;9.816;2022-10-16T02:28:17;0.80;;;0.70;;
545;SDS011;259;53.304;9.816;2022-10-16T02:33:17;1.20;;;0.93;;
545;SDS011;259;53.304;9.816;2022-10-16T02:35:46;0.90;;;0.90;;
545;SDS011;259;53.304;9.816;2022-10-16T02:38:15;1.20;;;1.10;;
545;SDS011;259;53.304;9.816;2022-10-16T02:40:42;1.10;;;1.00;;
545;SDS011;259;53.304;9.816;2022-10-16T02:43:08;1.07;;;0.90;;
545;SDS011;259;53.304;9.816;2022-10-16T02:45:34;1.07;;;1.00;;
545;SDS011;259;53.304;9.816;2022-10-16T02:48:00;1.07;;;1.07;;
545;SDS011;259;53.304;9.816;2022-10-16T02:50:25;0.87;;;0.87;;
545;SDS011;259;53.304;9.816;2022-10-16T02:52:51;1.20;;;0.80;;
545;SDS011;259;53.304;9.816;2022-10-16T02:55:17;1.10;;;0.90;;
545;SDS011;259;53.304;9.816;2022-10-16T02:57:42;1.00;;;1.00;;
545;SDS011;259;53.304;9.816;2022-10-16T03:00:09;0.83;;;0.83;;
545;SDS011;259;53.304;9.816;2022-10-16T03:02:36;1.10;;;1.00;;
545;SDS011;259;53.304;9.816;2022-10-16T03:05:02;0.70;;;0.70;;
545;SDS011;259;53.304;9.816;2022-10-16T03:07:27;0.90;;;0.90;;
545;SDS011;259;53.304;9.816;2022-10-16T03:09:53;1.30;;;1.00;;
545;SDS011;259;53.304;9.816;2022-10-16T03:12:20;0.83;;;0.80;;
545;SDS011;259;53.304;9.816;2022-10-16T03:14:46;1.03;;;0.90;;
545;SDS011;259;53.304;9.816;2022-10-16T03:17:11;0.80;;;0.70;;
545;SDS011;259;53.304;9.816;2022-10-16T03:19:38;1.10;;;0.70;;
545;SDS011;259;53.304;9.816;2022-10-16T03:22:03;0.70;;;0.70;;
545;SDS011;259;53.304;9.816;2022-10-16T03:24:29;0.70;;;0.70;;
545;SDS011;259;53.304;9.816;2022-10-16T03:26:55;1.60;;;0.90;;
545;SDS011;259;53.304;9.816;2022-10-16T03:29:20;1.03;;;0.93;;
545;SDS011;259;53.304;9.816;2022-10-16T03:31:46;0.70;;;0.70;;
545;SDS011;259;53.304;9.816;2022-10-16T03:34:13;3.57;;;1.70;;
545;SDS011;259;53.304;9.816;2022-10-16T03:36:38;1.03;;;0.90;;
545;SDS011;259;53.304;9.816;2022-10-16T03:39:04;1.30;;;0.70;;
545;SDS011;259;53.304;9.816;2022-10-16T03:41:30;0.77;;;0.77;;
545;SDS011;259;53.304;9.816;2022-10-16T03:43:55;0.77;;;0.77;;
545;SDS011;259;53.304;9.816;2022-10-16T03:46:21;0.90;;;0.90;;
545;SDS011;259;53.304;9.816;2022-10-16T03:48:46;0.77;;;0.77;;
545;SDS011;259;53.304;9.816;2022-10-16T03:51:12;0.87;;;0.80;;
545;SDS011;259;53.304;9.816;2022-10-16T03:53:38;0.70;;;0.70;;
545;SDS011;259;53.304;9.816;2022-10-16T03:56:03;1.13;;;0.90;;
545;SDS011;259;53.304;9.816;2022-10-16T03:58:29;1.00;;;0.90;;
545;SDS011;259;53.304;9.816;2022-10-16T04:00:54;0.90;;;0.90;;
545;SDS011;259;53.304;9.816;2022-10-16T04:03:20;0.77;;;0.77;;
545;SDS011;259;53.304;9.816;2022-10-16T04:05:46;1.07;;;1.00;;
545;SDS011;259;53.304;9.816;2022-10-16T04:08:11;1.33;;;0.60;;
545;SDS011;259;53.304;9.816;2022-10-16T04:10:37;2.60;;;0.90;;
545;SDS011;259;53.304;9.816;2022-10-16T04:13:03;1.20;;;1.10;;
545;SDS011;259;53.304;9.816;2022-10-16T04:15:28;1.20;;;0.70;;
545;SDS011;259;53.304;9.816;2022-10-16T04:17:54;0.80;;;0.80;;
545;SDS011;259;53.304;9.816;2022-10-16T04:20:19;1.53;;;0.90;;
545;SDS011;259;53.304;9.816;2022-10-16T04:22:45;0.80;;;0.70;;
545;SDS011;259;53.304;9.816;2022-10-16T04:25:10;0.60;;;0.60;;
545;SDS011;259;53.304;9.816;2022-10-16T04:27:37;0.70;;;0.70;;
545;SDS011;259;53.304;9.816;2022-10-16T04:30:03;0.80;;;0.80;;
545;SDS011;259;53.304;9.816;2022-10-16T04:32:29;0.87;;;0.73;;
545;SDS011;259;53.304;9.816;2022-10-16T04:34:54;5.33;;;1.27;;
545;SDS011;259;53.304;9.816;2022-10-16T04:37:24;0.93;;;0.90;;
545;SDS011;259;53.304;9.816;2022-10-16T04:39:50;1.10;;;0.77;;
545;SDS011;259;53.304;9.816;2022-10-16T04:42:16;1.43;;;0.90;;
545;SDS011;259;53.304;9.816;2022-10-16T04:44:41;1.33;;;1.23;;
545;SDS011;259;53.304;9.816;2022-10-16T04:47:07;0.90;;;0.70;;
545;SDS011;259;53.304;9.816;2022-10-16T04:49:33;1.13;;;0.93;;
545;SDS011;259;53.304;9.816;2022-10-16T04:51:58;0.70;;;0.70;;
545;SDS011;259;53.304;9.816;2022-10-16T04:54:24;1.73;;;1.10;;
545;SDS011;259;53.304;9.816;2022-10-16T04:56:49;0.80;;;0.80;;
545;SDS011;259;53.304;9.816;2022-10-16T04:59:16;1.43;;;0.70;;
545;SDS011;259;53.304;9.816;2022-10-16T05:01:42;1.27;;;0.90;;
545;SDS011;259;53.304;9.816;2022-10-16T05:04:08;1.13;;;0.80;;
545;SDS011;259;53.304;9.816;2022-10-16T05:06:34;1.77;;;0.93;;
545;SDS011;259;53.304;9.816;2022-10-16T05:09:00;1.10;;;0.93;;
545;SDS011;259;53.304;9.816;2022-10-16T05:11:25;0.87;;;0.87;;
545;SDS011;259;53.304;9.816;2022-10-16T05:13:51;0.90;;;0.90;;
545;SDS011;259;53.304;9.816;2022-10-16T05:16:17;1.00;;;0.90;;
545;SDS011;259;53.304;9.816;2022-10-16T05:18:42;0.70;;;0.70;;
545;SDS011;259;53.304;9.816;2022-10-16T05:21:08;1.17;;;0.93;;
545;SDS011;259;53.304;9.816;2022-10-16T05:23:33;1.37;;;0.80;;
545;SDS011;259;53.304;9.816;2022-10-16T05:25:59;1.17;;;1.07;;
545;SDS011;259;53.304;9.816;2022-10-16T05:28:26;1.23;;;1.13;;
545;SDS011;259;53.304;9.816;2022-10-16T05:30:53;0.70;;;0.70;;
545;SDS011;259;53.304;9.816;2022-10-16T05:33:19;0.77;;;0.77;;
545;SDS011;259;53.304;9.816;2022-10-16T05:35:46;1.10;;;1.00;;
545;SDS011;259;53.304;9.816;2022-10-16T05:38:11;0.80;;;0.80;;
545;SDS011;259;53.304;9.816;2022-10-16T05:40:37;0.80;;;0.80;;
545;SDS011;259;53.304;9.816;2022-10-16T05:43:02;1.07;;;1.07;;
545;SDS011;259;53.304;9.816;2022-10-16T05:45:28;0.97;;;0.87;;
545;SDS011;259;53.304;9.816;2022-10-16T05:47:54;0.90;;;0.90;;
545;SDS011;259;53.304;9.816;2022-10-16T05:50:19;0.90;;;0.73;;
545;SDS011;259;53.304;9.816;2022-10-16T05:52:45;2.30;;;0.70;;
545;SDS011;259;53.304;9.816;2022-10-16T05:55:10;0.87;;;0.87;;
545;SDS011;259;53.304;9.816;2022-10-16T05:57:36;1.10;;;1.00;;
545;SDS011;259;53.304;9.816;2022-10-16T06:00:02;1.00;;;0.90;;
545;SDS011;259;53.304;9.816;2022-10-16T06:02:28;1.00;;;1.00;;
545;SDS011;259;53.304;9.816;2022-10-16T06:04:53;1.20;;;0.90;;
545;SDS011;259;53.304;9.816;2022-10-16T06:07:19;0.80;;;0.80;;
545;SDS011;259;53.304;9.816;2022-10-16T06:09:48;1.20;;;0.90;;
545;SDS011;259;53.304;9.816;2022-10-16T06:12:14;0.77;;;0.77;;
545;SDS011;259;53.304;9.816;2022-10-16T06:14:40;0.60;;;0.60;;
545;SDS011;259;53.304;9.816;2022-10-16T06:17:06;1.20;;;1.10;;
545;SDS011;259;53.304;9.816;2022-10-16T06:19:31;1.40;;;1.30;;
545;SDS011;259;53.304;9.816;2022-10-16T06:21:57;2.00;;;0.90;;
545;SDS011;259;53.304;9.816;2022-10-16T06:24:23;1.40;;;0.80;;
545;SDS011;259;53.304;9.816;2022-10-16T06:26:49;1.27;;;0.90;;
545;SDS011;259;53.304;9.816;2022-10-16T06:29:14;1.10;;;1.00;;
545;SDS011;259;53.304;9.816;2022-10-16T06:31:40;1.33;;;1.07;;
545;SDS011;259;53.304;9.816;2022-10-16T06:34:08;1.33;;;1.07;;
545;SDS011;259;53.304;9.816;2022-10-16T06:36:35;1.13;;;1.00;;
545;SDS011;259;53.304;9.816;2022-10-16T06:39:01;1.10;;;1.00;;
545;SDS011;259;53.304;9.816;2022-10-16T06:41:28;1.40;;;1.30;;
545;SDS011;259;53.304;9.816;2022-10-16T06:43:53;1.20;;;1.10;;
545;SDS011;259;53.304;9.816;2022-10-16T06:46:20;1.00;;;0.90;;
545;SDS011;259;53.304;9.816;2022-10-16T06:48:47;0.93;;;0.93;;
545;SDS011;259;53.304;9.816;2022-10-16T06:51:14;1.00;;;0.90;;
545;SDS011;259;53.304;9.816;2022-10-16T06:53:47;1.40;;;1.27;;
545;SDS011;259;53.304;9.816;2022-10-16T06:56:22;1.30;;;1.20;;
545;SDS011;259;53.304;9.816;2022-10-16T06:58:50;1.00;;;1.00;;
545;SDS011;259;53.304;9.816;2022-10-16T07:01:16;1.10;;;1.10;;
545;SDS011;259;53.304;9.816;2022-10-16T07:03:44;0.90;;;0.90;;
545;SDS011;259;53.304;9.816;2022-10-16T07:06:11;1.30;;;1.30;;
545;SDS011;259;53.304;9.816;2022-10-16T07:08:39;1.13;;;1.03;;
545;SDS011;259;53.304;9.816;2022-10-16T07:11:06;1.30;;;1.20;;
545;SDS011;259;53.304;9.816;2022-10-16T07:13:33;1.10;;;1.00;;
545;SDS011;259;53.304;9.816;2022-10-16T07:16:19;1.33;;;1.20;;
545;SDS011;259;53.304;9.816;2022-10-16T07:18:46;1.00;;;0.97;;
545;SDS011;259;53.304;9.816;2022-10-16T07:21:19;1.23;;;1.13;;
545;SDS011;259;53.304;9.816;2022-10-16T07:23:52;4.87;;;1.47;;
545;SDS011;259;53.304;9.816;2022-10-16T07:26:19;1.97;;;1.27;;
545;SDS011;259;53.304;9.816;2022-10-16T07:28:45;3.23;;;1.70;;
545;SDS011;259;53.304;9.816;2022-10-16T07:31:12;1.50;;;1.40;;
545;SDS011;259;53.304;9.816;2022-10-16T07:33:39;1.60;;;1.50;;
545;SDS011;259;53.304;9.816;2022-10-16T07:36:07;3.40;;;1.40;;
545;SDS011;259;53.304;9.816;2022-10-16T07:38:32;3.67;;;1.83;;
545;SDS011;259;53.304;9.816;2022-10-16T07:40:58;9.40;;;2.27;;
545;SDS011;259;53.304;9.816;2022-10-16T07:43:26;3.83;;;1.60;;
545;SDS011;259;53.304;9.816;2022-10-16T07:45:52;8.67;;;1.90;;
545;SDS011;259;53.304;9.816;2022-10-16T07:48:18;4.50;;;1.53;;
545;SDS011;259;53.304;9.816;2022-10-16T07:50:44;2.80;;;2.00;;
545;SDS011;259;53.304;9.816;2022-10-16T07:53:10;5.33;;;2.57;;
545;SDS011;259;53.304;9.816;2022-10-16T07:55:37;4.53;;;1.53;;
545;SDS011;259;53.304;9.816;2022-10-16T07:58:02;5.00;;;1.90;;
545;SDS011;259;53.304;9.816;2022-10-16T08:00:29;4.90;;;1.70;;
545;SDS011;259;53.304;9.816;2022-10-16T08:02:56;2.77;;;1.50;;
545;SDS011;259;53.304;9.816;2022-10-16T08:05:25;4.37;;;1.33;;
545;SDS011;259;53.304;9.816;2022-10-16T08:07:52;5.17;;;1.53;;
545;SDS011;259;53.304;9.816;2022-10-16T08:10:18;1.90;;;1.40;;
545;SDS011;259;53.304;9.816;2022-10-16T08:12:46;3.10;;;1.20;;
545;SDS011;259;53.304;9.816;2022-10-16T08:15:11;3.07;;;1.57;;
545;SDS011;259;53.304;9.816;2022-10-16T08:17:37;2.77;;;1.43;;
545;SDS011;259;53.304;9.816;2022-10-16T08:20:03;3.43;;;1.33;;
545;SDS011;259;53.304;9.816;2022-10-16T08:22:29;3.27;;;1.40;;
545;SDS011;259;53.304;9.816;2022-10-16T08:24:55;2.43;;;1.47;;
545;SDS011;259;53.304;9.816;2022-10-16T08:27:21;2.27;;;1.30;;
545;SDS011;259;53.304;9.816;2022-10-16T08:29:48;1.23;;;1.13;;
545;SDS011;259;53.304;9.816;2022-10-16T08:32:14;1.30;;;1.20;;
545;SDS011;259;53.304;9.816;2022-10-16T08:34:39;2.03;;;1.43;;
545;SDS011;259;53.304;9.816;2022-10-16T08:37:05;1.43;;;1.33;;
545;SDS011;259;53.304;9.816;2022-10-16T08:39:32;2.90;;;1.33;;
545;SDS011;259;53.304;9.816;2022-10-16T08:47:21;2.30;;;1.53;;
545;SDS011;259;53.304;9.816;2022-10-16T08:50:00;4.03;;;1.20;;
545;SDS011;259;53.304;9.816;2022-10-16T08:52:35;1.50;;;0.83;;
545;SDS011;259;53.304;9.816;2022-10-16T08:55:05;1.20;;;1.10;;
545;SDS011;259;53.304;9.816;2022-10-16T08:57:31;1.70;;;1.40;;
545;SDS011;259;53.304;9.816;2022-10-16T08:59:58;1.07;;;0.97;;
545;SDS011;259;53.304;9.816;2022-10-16T09:02:32;2.33;;;1.20;;
545;SDS011;259;53.304;9.816;2022-10-16T09:11:05;1.80;;;1.13;;
545;SDS011;259;53.304;9.816;2022-10-16T09:13:36;2.73;;;0.77;;
545;SDS011;259;53.304;9.816;2022-10-16T09:16:17;1.07;;;1.07;;
545;SDS011;259;53.304;9.816;2022-10-16T09:19:13;0.90;;;0.70;;
545;SDS011;259;53.304;9.816;2022-10-16T09:21:54;2.80;;;0.90;;
545;SDS011;259;53.304;9.816;2022-10-16T09:24:21;1.93;;;1.10;;
545;SDS011;259;53.304;9.816;2022-10-16T09:26:50;1.07;;;0.97;;
545;SDS011;259;53.304;9.816;2022-10-16T09:29:17;2.60;;;0.90;;
545;SDS011;259;53.304;9.816;2022-10-16T09:31:51;0.80;;;0.80;;
545;SDS011;259;53.304;9.816;2022-10-16T09:34:32;1.87;;;0.80;;
545;SDS011;259;53.304;9.816;2022-10-16T09:37:01;3.77;;;1.20;;
545;SDS011;259;53.304;9.816;2022-10-16T09:39:30;1.10;;;1.00;;
545;SDS011;259;53.304;9.816;2022-10-16T09:42:10;2.20;;;1.17;;
545;SDS011;259;53.304;9.816;2022-10-16T09:44:39;2.00;;;1.23;;
545;SDS011;259;53.304;9.816;2022-10-16T09:47:12;4.90;;;1.40;;
545;SDS011;259;53.304;9.816;2022-10-16T09:49:38;4.83;;;1.37;;
545;SDS011;259;53.304;9.816;2022-10-16T09:52:04;4.50;;;1.53;;
545;SDS011;259;53.304;9.816;2022-10-16T09:54:38;5.37;;;2.00;;
545;SDS011;259;53.304;9.816;2022-10-16T09:57:15;2.83;;;1.60;;
545;SDS011;259;53.304;9.816;2022-10-16T09:59:53;3.30;;;1.20;;
545;SDS011;259;53.304;9.816;2022-10-16T10:02:30;1.90;;;1.17;;
545;SDS011;259;53.304;9.816;2022-10-16T10:04:59;2.30;;;1.07;;
545;SDS011;259;53.304;9.816;2022-10-16T10:07:26;4.23;;;1.33;;
545;SDS011;259;53.304;9.816;2022-10-16T10:09:58;4.47;;;1.60;;
545;SDS011;259;53.304;9.816;2022-10-16T10:12:25;7.20;;;1.33;;
545;SDS011;259;53.304;9.816;2022-10-16T10:14:55;12.33;;;2.30;;
545;SDS011;259;53.304;9.816;2022-10-16T10:17:23;7.83;;;1.70;;
545;SDS011;259;53.304;9.816;2022-10-16T10:19:54;7.73;;;2.13;;
545;SDS011;259;53.304;9.816;2022-10-16T10:22:40;6.87;;;1.83;;
545;SDS011;259;53.304;9.816;2022-10-16T10:33:17;8.13;;;1.80;;
545;SDS011;259;53.304;9.816;2022-10-16T10:35:53;10.13;;;3.07;;
545;SDS011;259;53.304;9.816;2022-10-16T10:38:27;7.70;;;2.33;;
545;SDS011;259;53.304;9.816;2022-10-16T10:41:13;4.30;;;1.20;;
545;SDS011;259;53.304;9.816;2022-10-16T10:44:03;6.13;;;1.90;;
545;SDS011;259;53.304;9.816;2022-10-16T10:46:41;11.70;;;2.10;;
545;SDS011;259;53.304;9.816;2022-10-16T10:49:23;8.13;;;2.20;;
545;SDS011;259;53.304;9.816;2022-10-16T10:54:53;6.53;;;1.73;;
545;SDS011;259;53.304;9.816;2022-10-16T10:57:48;8.90;;;2.23;;
545;SDS011;259;53.304;9.816;2022-10-16T11:03:09;10.80;;;1.87;;
545;SDS011;259;53.304;9.816;2022-10-16T11:06:06;5.17;;;1.30;;
545;SDS011;259;53.304;9.816;2022-10-16T11:08:52;3.17;;;1.30;;
545;SDS011;259;53.304;9.816;2022-10-16T11:14:03;11.10;;;2.57;;
545;SDS011;259;53.304;9.816;2022-10-16T11:16:39;9.00;;;2.03;;
545;SDS011;259;53.304;9.816;2022-10-16T11:19:13;5.67;;;1.60;;
545;SDS011;259;53.304;9.816;2022-10-16T11:21:49;10.43;;;2.10;;
545;SDS011;259;53.304;9.816;2022-10-16T11:27:36;9.33;;;2.20;;
545;SDS011;259;53.304;9.816;2022-10-16T11:30:04;10.73;;;1.73;;
545;SDS011;259;53.304;9.816;2022-10-16T11:32:47;6.00;;;2.30;;
545;SDS011;259;53.304;9.816;2022-10-16T11:35:17;6.80;;;1.97;;
545;SDS011;259;53.304;9.816;2022-10-16T11:38:53;8.87;;;1.80;;
545;SDS011;259;53.304;9.816;2022-10-16T11:40:59;9.90;;;1.63;;
545;SDS011;259;53.304;9.816;2022-10-16T11:43:37;11.00;;;2.17;;
545;SDS011;259;53.304;9.816;2022-10-16T11:46:24;17.77;;;2.10;;
545;SDS011;259;53.304;9.816;2022-10-16T11:49:14;9.13;;;1.80;;
545;SDS011;259;53.304;9.816;2022-10-16T11:51:45;5.33;;;1.53;;
545;SDS011;259;53.304;9.816;2022-10-16T11:54:22;4.93;;;1.60;;
545;SDS011;259;53.304;9.816;2022-10-16T11:56:54;8.80;;;1.90;;
545;SDS011;259;53.304;9.816;2022-10-16T11:59:31;10.83;;;1.67;;
545;SDS011;259;53.304;9.816;2022-10-16T12:07:49;9.07;;;4.17;;
545;SDS011;259;53.304;9.816;2022-10-16T12:10:24;21.77;;;15.33;;
545;SDS011;259;53.304;9.816;2022-10-16T12:12:52;16.20;;;10.17;;
545;SDS011;259;53.304;9.816;2022-10-16T12:15:20;12.23;;;7.40;;
545;SDS011;259;53.304;9.816;2022-10-16T12:17:49;7.70;;;5.17;;
545;SDS011;259;53.304;9.816;2022-10-16T12:22:56;16.67;;;5.20;;
545;SDS011;259;53.304;9.816;2022-10-16T12:25:27;15.40;;;4.70;;
545;SDS011;259;53.304;9.816;2022-10-16T12:28:20;14.10;;;4.10;;
545;SDS011;259;53.304;9.816;2022-10-16T12:33:33;14.90;;;3.17;;
545;SDS011;259;53.304;9.816;2022-10-16T12:36:10;11.83;;;4.07;;
545;SDS011;259;53.304;9.816;2022-10-16T12:38:47;10.17;;;3.70;;
545;SDS011;259;53.304;9.816;2022-10-16T12:41:24;6.90;;;3.13;;
545;SDS011;259;53.304;9.816;2022-10-16T12:43:53;5.30;;;2.23;;
545;SDS011;259;53.304;9.816;2022-10-16T12:48:48;10.17;;;3.13;;
545;SDS011;259;53.304;9.816;2022-10-16T12:51:25;5.40;;;2.63;;
545;SDS011;259;53.304;9.816;2022-10-16T12:54:04;4.37;;;1.70;;
545;SDS011;259;53.304;9.816;2022-10-16T12:56:51;7.70;;;3.17;;
545;SDS011;259;53.304;9.816;2022-10-16T13:02:34;4.23;;;1.80;;
545;SDS011;259;53.304;9.816;2022-10-16T13:05:24;3.77;;;2.10;;
545;SDS011;259;53.304;9.816;2022-10-16T13:19:15;3.87;;;1.80;;
545;SDS011;259;53.304;9.816;2022-10-16T13:25:18;5.87;;;1.53;;
545;SDS011;259;53.304;9.816;2022-10-16T13:27:59;2.80;;;1.73;;
545;SDS011;259;53.304;9.816;2022-10-16T13:30:31;3.67;;;1.43;;
545;SDS011;259;53.304;9.816;2022-10-16T13:33:02;2.70;;;1.50;;
545;SDS011;259;53.304;9.816;2022-10-16T13:35:32;3.53;;;1.50;;
545;SDS011;259;53.304;9.816;2022-10-16T13:38:03;3.83;;;1.63;;
545;SDS011;259;53.304;9.816;2022-10-16T13:40:31;2.77;;;1.40;;
545;SDS011;259;53.304;9.816;2022-10-16T13:42:59;3.20;;;1.33;;
545;SDS011;259;53.304;9.816;2022-10-16T13:45:25;1.83;;;1.40;;
545;SDS011;259;53.304;9.816;2022-10-16T13:48:04;2.67;;;1.30;;
545;SDS011;259;53.304;9.816;2022-10-16T13:50:31;3.27;;;1.20;;
545;SDS011;259;53.304;9.816;2022-10-16T13:53:03;1.90;;;1.20;;
545;SDS011;259;53.304;9.816;2022-10-16T13:55:30;1.33;;;1.13;;
545;SDS011;259;53.304;9.816;2022-10-16T13:58:11;1.93;;;1.30;;
545;SDS011;259;53.304;9.816;2022-10-16T14:00:38;2.17;;;1.40;;
545;SDS011;259;53.304;9.816;2022-10-16T14:03:05;3.23;;;1.60;;
545;SDS011;259;53.304;9.816;2022-10-16T14:05:45;3.10;;;1.60;;
545;SDS011;259;53.304;9.816;2022-10-16T14:08:13;1.90;;;1.13;;
545;SDS011;259;53.304;9.816;2022-10-16T14:10:39;4.60;;;1.50;;
545;SDS011;259;53.304;9.816;2022-10-16T14:13:05;2.30;;;1.50;;
545;SDS011;259;53.304;9.816;2022-10-16T14:15:33;3.30;;;1.00;;
545;SDS011;259;53.304;9.816;2022-10-16T14:18:01;1.70;;;1.20;;
545;SDS011;259;53.304;9.816;2022-10-16T14:20:31;1.90;;;1.10;;
545;SDS011;259;53.304;9.816;2022-10-16T14:23:03;1.80;;;1.10;;
545;SDS011;259;53.304;9.816;2022-10-16T14:25:43;1.57;;;0.90;;
545;SDS011;259;53.304;9.816;2022-10-16T14:28:15;1.27;;;0.90;;
545;SDS011;259;53.304;9.816;2022-10-16T14:30:55;3.83;;;1.37;;
545;SDS011;259;53.304;9.816;2022-10-16T14:33:24;1.47;;;1.03;;
545;SDS011;259;53.304;9.816;2022-10-16T14:36:11;2.27;;;1.53;;
545;SDS011;259;53.304;9.816;2022-10-16T14:38:40;4.63;;;1.20;;
545;SDS011;259;53.304;9.816;2022-10-16T14:41:07;2.27;;;1.00;;
545;SDS011;259;53.304;9.816;2022-10-16T14:43:40;1.33;;;0.70;;
545;SDS011;259;53.304;9.816;2022-10-16T14:46:11;1.63;;;1.07;;
545;SDS011;259;53.304;9.816;2022-10-16T14:48:40;1.30;;;0.93;;
545;SDS011;259;53.304;9.816;2022-10-16T14:51:08;2.13;;;0.90;;
545;SDS011;259;53.304;9.816;2022-10-16T14:53:39;1.87;;;1.07;;
545;SDS011;259;53.304;9.816;2022-10-16T14:56:06;1.57;;;1.17;;
545;SDS011;259;53.304;9.816;2022-10-16T14:58:32;1.37;;;0.90;;
545;SDS011;259;53.304;9.816;2022-10-16T15:00:58;2.67;;;0.90;;
545;SDS011;259;53.304;9.816;2022-10-16T15:03:24;2.10;;;0.90;;
545;SDS011;259;53.304;9.816;2022-10-16T15:05:49;1.70;;;0.80;;
545;SDS011;259;53.304;9.816;2022-10-16T15:08:15;1.20;;;0.83;;
545;SDS011;259;53.304;9.816;2022-10-16T15:10:42;0.83;;;0.80;;
545;SDS011;259;53.304;9.816;2022-10-16T15:13:11;1.63;;;1.23;;
545;SDS011;259;53.304;9.816;2022-10-16T15:15:42;2.30;;;1.00;;
545;SDS011;259;53.304;9.816;2022-10-16T15:18:09;1.13;;;0.80;;
545;SDS011;259;53.304;9.816;2022-10-16T15:20:36;1.93;;;1.10;;
545;SDS011;259;53.304;9.816;2022-10-16T15:23:10;3.80;;;0.90;;
545;SDS011;259;53.304;9.816;2022-10-16T15:25:41;1.70;;;0.97;;
545;SDS011;259;53.304;9.816;2022-10-16T15:28:12;2.47;;;0.90;;
545;SDS011;259;53.304;9.816;2022-10-16T15:30:39;1.40;;;1.23;;
545;SDS011;259;53.304;9.816;2022-10-16T15:33:08;2.60;;;0.93;;
545;SDS011;259;53.304;9.816;2022-10-16T15:35:40;0.93;;;0.70;;
545;SDS011;259;53.304;9.816;2022-10-16T15:38:05;1.73;;;1.10;;
545;SDS011;259;53.304;9.816;2022-10-16T15:40:31;0.90;;;0.90;;
545;SDS011;259;53.304;9.816;2022-10-16T15:42:57;1.00;;;0.90;;
545;SDS011;259;53.304;9.816;2022-10-16T15:45:22;1.20;;;1.10;;
545;SDS011;259;53.304;9.816;2022-10-16T15:47:48;1.97;;;1.07;;
545;SDS011;259;53.304;9.816;2022-10-16T15:50:14;1.47;;;1.00;;
545;SDS011;259;53.304;9.816;2022-10-16T15:52:40;1.20;;;0.90;;
545;SDS011;259;53.304;9.816;2022-10-16T15:55:08;1.77;;;0.90;;
545;SDS011;259;53.304;9.816;2022-10-16T15:57:35;1.27;;;1.10;;
545;SDS011;259;53.304;9.816;2022-10-16T16:00:03;1.77;;;1.03;;
545;SDS011;259;53.304;9.816;2022-10-16T16:02:30;1.20;;;1.07;;
545;SDS011;259;53.304;9.816;2022-10-16T16:04:56;2.10;;;0.93;;
545;SDS011;259;53.304;9.816;2022-10-16T16:07:22;1.43;;;1.30;;
545;SDS011;259;53.304;9.816;2022-10-16T16:09:47;1.43;;;1.10;;
545;SDS011;259;53.304;9.816;2022-10-16T16:12:13;1.40;;;1.00;;
545;SDS011;259;53.304;9.816;2022-10-16T16:14:38;2.30;;;1.00;;
545;SDS011;259;53.304;9.816;2022-10-16T16:17:04;1.20;;;0.70;;
545;SDS011;259;53.304;9.816;2022-10-16T16:19:29;3.03;;;1.30;;
545;SDS011;259;53.304;9.816;2022-10-16T16:21:56;2.53;;;1.17;;
545;SDS011;259;53.304;9.816;2022-10-16T16:24:22;1.63;;;1.00;;
545;SDS011;259;53.304;9.816;2022-10-16T16:26:47;1.97;;;1.30;;
545;SDS011;259;53.304;9.816;2022-10-16T16:29:14;2.03;;;1.10;;
545;SDS011;259;53.304;9.816;2022-10-16T16:31:40;1.00;;;0.90;;
545;SDS011;259;53.304;9.816;2022-10-16T16:34:07;1.20;;;1.10;;
545;SDS011;259;53.304;9.816;2022-10-16T16:36:34;2.20;;;0.90;;
545;SDS011;259;53.304;9.816;2022-10-16T16:39:00;1.23;;;1.00;;
545;SDS011;259;53.304;9.816;2022-10-16T16:41:27;1.23;;;1.00;;
545;SDS011;259;53.304;9.816;2022-10-16T16:43:54;0.83;;;0.83;;
545;SDS011;259;53.304;9.816;2022-10-16T16:46:26;1.03;;;0.80;;
545;SDS011;259;53.304;9.816;2022-10-16T16:48:52;1.17;;;1.07;;
545;SDS011;259;53.304;9.816;2022-10-16T16:51:20;1.07;;;0.90;;
545;SDS011;259;53.304;9.816;2022-10-16T16:53:47;1.00;;;0.90;;
545;SDS011;259;53.304;9.816;2022-10-16T16:56:15;2.60;;;0.93;;
545;SDS011;259;53.304;9.816;2022-10-16T16:58:44;1.77;;;1.00;;
545;SDS011;259;53.304;9.816;2022-10-16T17:01:10;1.03;;;0.93;;
545;SDS011;259;53.304;9.816;2022-10-16T17:03:36;1.10;;;1.00;;
545;SDS011;259;53.304;9.816;2022-10-16T17:06:03;4.33;;;1.07;;
545;SDS011;259;53.304;9.816;2022-10-16T17:08:31;2.93;;;0.80;;
545;SDS011;259;53.304;9.816;2022-10-16T17:10:58;1.03;;;0.90;;
545;SDS011;259;53.304;9.816;2022-10-16T17:13:24;0.80;;;0.80;;
545;SDS011;259;53.304;9.816;2022-10-16T17:15:51;0.93;;;0.60;;
545;SDS011;259;53.304;9.816;2022-10-16T17:18:18;2.50;;;1.10;;
545;SDS011;259;53.304;9.816;2022-10-16T17:20:45;2.77;;;1.00;;
545;SDS011;259;53.304;9.816;2022-10-16T17:23:11;0.70;;;0.70;;
545;SDS011;259;53.304;9.816;2022-10-16T17:25:40;1.93;;;0.80;;